Time;durP1;ratioP1;P1;durP2;ratioP2;P2;SDS_P1;SDS_P2;PMS_P1;PMS_P2;Temp;Humidity;BMP_temperature;BMP_pressure;BME280_temperature;BME280_humidity;BME280_pressure;Samples;Min_cycle;Max_cycle;Signal;HPM_P1;HPM_P2
2023/12/10 00:02:02;;;;;;;12.00;9.47;;;;;;;;;;5070080;28;20445;-56
2023/12/10 00:04:29;;;;;;;12.87;9.77;;;;;;;;;;5070170;28;20862;-54
2023/12/10 00:06:57;;;;;;;11.63;10.53;;;;;;;;;;5070470;28;20438;-57
2023/12/10 00:09:24;;;;;;;10.87;9.77;;;;;;;;;;5070119;28;20449;-56
2023/12/10 00:11:52;;;;;;;11.10;10.00;;;;;;;;;;5070392;28;20516;-55
2023/12/10 00:14:19;;;;;;;10.43;8.87;;;;;;;;;;5069334;28;20479;-56
2023/12/10 00:16:48;;;;;;;10.50;8.50;;;;;;;;;;5069659;28;20431;-54
2023/12/10 00:19:15;;;;;;;11.30;7.87;;;;;;;;;;5069791;28;20454;-54
2023/12/10 00:21:42;;;;;;;8.43;7.43;;;;;;;;;;5070127;28;20433;-55
2023/12/10 00:24:10;;;;;;;8.80;7.53;;;;;;;;;;5070118;28;20468;-53
2023/12/10 00:26:37;;;;;;;7.60;6.50;;;;;;;;;;5070479;28;20964;-55
2023/12/10 00:29:05;;;;;;;8.70;7.70;;;;;;;;;;5069351;28;20935;-56
2023/12/10 00:31:32;;;;;;;9.57;7.73;;;;;;;;;;5070204;28;20501;-56
2023/12/10 00:34:01;;;;;;;8.80;7.53;;;;;;;;;;5070272;28;20467;-56
2023/12/10 00:36:28;;;;;;;8.40;7.00;;;;;;;;;;5070494;28;20861;-56
2023/12/10 00:38:56;;;;;;;7.57;6.77;;;;;;;;;;5069815;28;20446;-55
2023/12/10 00:41:23;;;;;;;8.87;7.97;;;;;;;;;;5069890;28;20821;-54
2023/12/10 00:43:50;;;;;;;8.67;7.10;;;;;;;;;;5070145;28;20461;-55
2023/12/10 00:46:18;;;;;;;9.13;7.80;;;;;;;;;;5069996;28;20449;-57
2023/12/10 00:48:45;;;;;;;6.93;6.23;;;;;;;;;;5069774;28;20443;-56
2023/12/10 00:51:21;;;;;;;7.10;6.40;;;;;;;;;;5069151;28;20478;-56
2023/12/10 00:53:48;;;;;;;7.87;6.20;;;;;;;;;;5069943;28;20479;-56
2023/12/10 00:56:15;;;;;;;8.20;7.40;;;;;;;;;;5069965;28;20445;-55
2023/12/10 00:58:43;;;;;;;5.90;4.93;;;;;;;;;;5069765;28;20452;-54
2023/12/10 01:01:10;;;;;;;7.43;5.80;;;;;;;;;;5069575;28;20447;-58
2023/12/10 01:03:38;;;;;;;5.10;4.60;;;;;;;;;;5069758;28;20991;-54
2023/12/10 01:06:05;;;;;;;5.43;4.80;;;;;;;;;;5069569;28;20452;-56
2023/12/10 01:08:34;;;;;;;6.17;5.57;;;;;;;;;;5070446;28;20455;-56
2023/12/10 01:11:02;;;;;;;5.90;4.60;;;;;;;;;;5073312;28;21023;-56
2023/12/10 01:13:29;;;;;;;7.20;5.47;;;;;;;;;;5073838;28;20557;-56
2023/12/10 01:15:57;;;;;;;8.17;5.87;;;;;;;;;;5073465;28;20458;-58
2023/12/10 01:18:24;;;;;;;8.83;6.50;;;;;;;;;;5073407;28;20448;-54
2023/12/10 01:20:52;;;;;;;9.10;5.63;;;;;;;;;;5073266;28;20443;-55
2023/12/10 01:23:19;;;;;;;6.20;5.60;;;;;;;;;;5073375;28;21005;-53
2023/12/10 01:25:48;;;;;;;6.33;5.17;;;;;;;;;;5073630;28;20434;-55
2023/12/10 01:28:15;;;;;;;5.87;5.17;;;;;;;;;;5072914;28;20441;-56
2023/12/10 01:30:43;;;;;;;5.70;4.70;;;;;;;;;;5072866;28;20997;-54
2023/12/10 01:33:11;;;;;;;5.57;4.00;;;;;;;;;;5072912;28;20466;-55
2023/12/10 01:35:38;;;;;;;8.17;6.13;;;;;;;;;;5072951;28;20479;-55
2023/12/10 01:38:05;;;;;;;7.13;5.37;;;;;;;;;;5072866;28;20980;-54
2023/12/10 01:40:33;;;;;;;7.77;5.60;;;;;;;;;;5072792;28;20930;-55
2023/12/10 01:43:07;;;;;;;5.97;4.13;;;;;;;;;;5073027;28;20463;-55
2023/12/10 01:45:35;;;;;;;6.70;5.43;;;;;;;;;;5073237;28;20443;-54
2023/12/10 01:48:04;;;;;;;3.77;3.33;;;;;;;;;;5072588;28;20451;-56
2023/12/10 01:50:33;;;;;;;3.97;3.03;;;;;;;;;;5073290;28;20471;-53
2023/12/10 01:53:01;;;;;;;3.93;2.70;;;;;;;;;;5118425;22;20503;-56
2023/12/10 01:55:28;;;;;;;4.33;3.47;;;;;;;;;;5076262;28;20957;-55
2023/12/10 01:57:56;;;;;;;5.20;4.00;;;;;;;;;;5075736;28;20448;-57
2023/12/10 02:00:26;;;;;;;5.60;4.77;;;;;;;;;;5075301;28;20459;-55
2023/12/10 02:02:55;;;;;;;6.03;5.43;;;;;;;;;;5075206;28;20471;-55
2023/12/10 02:05:23;;;;;;;6.10;5.30;;;;;;;;;;5075556;28;20914;-55
2023/12/10 02:07:50;;;;;;;6.03;5.40;;;;;;;;;;5075692;28;20444;-56
2023/12/10 02:10:19;;;;;;;5.07;4.57;;;;;;;;;;5075469;28;20462;-55
2023/12/10 02:12:47;;;;;;;4.20;3.63;;;;;;;;;;5074141;28;20467;-55
2023/12/10 02:15:16;;;;;;;4.13;2.80;;;;;;;;;;5072883;28;20448;-54
2023/12/10 02:17:45;;;;;;;3.40;2.70;;;;;;;;;;5074591;28;20443;-57
2023/12/10 02:20:13;;;;;;;5.33;3.50;;;;;;;;;;5074762;28;20442;-54
2023/12/10 02:22:43;;;;;;;5.30;4.43;;;;;;;;;;5068373;28;20456;-54
2023/12/10 02:25:13;;;;;;;5.23;4.63;;;;;;;;;;5075437;28;20447;-53
2023/12/10 02:27:41;;;;;;;5.83;5.23;;;;;;;;;;5073547;28;20454;-55
2023/12/10 02:30:10;;;;;;;6.70;5.23;;;;;;;;;;5072416;28;20455;-55
2023/12/10 02:32:37;;;;;;;4.30;3.90;;;;;;;;;;5073255;28;20484;-55
2023/12/10 02:35:05;;;;;;;5.43;4.77;;;;;;;;;;5074980;28;20444;-57
2023/12/10 02:37:33;;;;;;;5.40;4.33;;;;;;;;;;5074517;28;20447;-55
2023/12/10 02:40:00;;;;;;;4.97;4.30;;;;;;;;;;5074694;28;20944;-58
2023/12/10 02:42:28;;;;;;;5.47;4.97;;;;;;;;;;5074477;28;20494;-55
2023/12/10 02:44:57;;;;;;;6.30;5.50;;;;;;;;;;5074858;28;20455;-55
2023/12/10 02:47:24;;;;;;;7.30;6.60;;;;;;;;;;5074665;28;20454;-55
2023/12/10 02:49:51;;;;;;;5.50;4.43;;;;;;;;;;5074250;28;20447;-55
2023/12/10 02:52:22;;;;;;;5.10;3.90;;;;;;;;;;5072107;28;20497;-54
2023/12/10 02:54:49;;;;;;;8.57;5.07;;;;;;;;;;5073566;28;20867;-55
2023/12/10 02:57:17;;;;;;;6.83;5.20;;;;;;;;;;5074411;28;20460;-58
2023/12/10 02:59:44;;;;;;;5.10;4.47;;;;;;;;;;5073773;28;20448;-55
2023/12/10 03:02:13;;;;;;;6.43;5.77;;;;;;;;;;5074516;28;20435;-55
2023/12/10 03:04:40;;;;;;;6.50;5.90;;;;;;;;;;5073907;28;20482;-55
2023/12/10 03:07:07;;;;;;;7.23;5.77;;;;;;;;;;5071903;28;20447;-54
2023/12/10 03:09:35;;;;;;;6.60;6.00;;;;;;;;;;5071677;28;20447;-54
2023/12/10 03:12:02;;;;;;;5.70;5.10;;;;;;;;;;5071415;28;20487;-54
2023/12/10 03:14:30;;;;;;;6.53;5.90;;;;;;;;;;5071549;28;20475;-54
2023/12/10 03:16:57;;;;;;;7.47;6.77;;;;;;;;;;5072000;28;20444;-55
2023/12/10 03:19:26;;;;;;;9.10;7.30;;;;;;;;;;5057758;28;20448;-54
2023/12/10 03:21:53;;;;;;;7.43;6.50;;;;;;;;;;5067653;28;20483;-54
2023/12/10 03:24:20;;;;;;;6.90;6.23;;;;;;;;;;5072896;28;20469;-55
2023/12/10 03:26:48;;;;;;;7.80;7.00;;;;;;;;;;5072413;28;20440;-55
2023/12/10 03:29:15;;;;;;;7.13;6.30;;;;;;;;;;5072805;28;20447;-55
2023/12/10 03:31:43;;;;;;;8.00;6.73;;;;;;;;;;5073349;28;20484;-55
2023/12/10 03:34:10;;;;;;;7.60;6.20;;;;;;;;;;5073794;28;20469;-54
2023/12/10 03:36:39;;;;;;;6.03;5.27;;;;;;;;;;5073951;28;20474;-55
2023/12/10 03:39:06;;;;;;;6.73;6.13;;;;;;;;;;5072957;28;20466;-54
2023/12/10 03:41:34;;;;;;;6.07;5.47;;;;;;;;;;5071877;28;20445;-54
2023/12/10 03:44:01;;;;;;;6.20;5.60;;;;;;;;;;5072288;28;20546;-55
2023/12/10 03:46:29;;;;;;;6.70;4.70;;;;;;;;;;5074066;28;20450;-55
2023/12/10 03:48:56;;;;;;;7.33;6.63;;;;;;;;;;5073354;28;20461;-54
2023/12/10 03:51:24;;;;;;;9.63;8.60;;;;;;;;;;5073286;28;20480;-56
2023/12/10 03:53:52;;;;;;;10.63;9.63;;;;;;;;;;5072813;28;20483;-58
2023/12/10 03:56:20;;;;;;;9.33;8.40;;;;;;;;;;5071977;28;20451;-56
2023/12/10 03:58:47;;;;;;;10.07;8.27;;;;;;;;;;5073191;28;20564;-54
2023/12/10 04:01:14;;;;;;;9.30;8.50;;;;;;;;;;5072963;28;20448;-56
2023/12/10 04:03:42;;;;;;;8.47;7.57;;;;;;;;;;5072835;28;20473;-54
2023/12/10 04:06:10;;;;;;;12.23;7.73;;;;;;;;;;5073139;28;20451;-54
2023/12/10 04:08:37;;;;;;;9.30;8.17;;;;;;;;;;5073100;28;20449;-54
2023/12/10 04:11:06;;;;;;;7.90;7.10;;;;;;;;;;5072878;28;20451;-54
2023/12/10 04:13:33;;;;;;;7.70;6.90;;;;;;;;;;5073013;28;20472;-54
2023/12/10 04:16:01;;;;;;;7.83;6.93;;;;;;;;;;5072709;28;20443;-62
2023/12/10 04:18:28;;;;;;;8.50;7.70;;;;;;;;;;5073055;28;20926;-57
2023/12/10 04:20:56;;;;;;;7.90;7.20;;;;;;;;;;5073332;28;20806;-54
2023/12/10 04:23:23;;;;;;;7.87;6.77;;;;;;;;;;5066099;28;20456;-54
2023/12/10 04:25:51;;;;;;;6.50;5.97;;;;;;;;;;5072843;28;20445;-54
2023/12/10 04:28:20;;;;;;;7.20;6.03;;;;;;;;;;5072268;28;20499;-54
2023/12/10 04:30:47;;;;;;;8.23;7.43;;;;;;;;;;5071474;28;20443;-55
2023/12/10 04:33:15;;;;;;;6.50;5.90;;;;;;;;;;5070868;28;20491;-54
2023/12/10 04:35:42;;;;;;;6.87;5.90;;;;;;;;;;5072087;28;20496;-55
2023/12/10 04:38:09;;;;;;;8.97;8.07;;;;;;;;;;5068002;28;20448;-56
2023/12/10 04:40:37;;;;;;;9.30;8.00;;;;;;;;;;5062613;28;20444;-58
2023/12/10 04:43:04;;;;;;;8.33;7.53;;;;;;;;;;5072978;28;20465;-55
2023/12/10 04:45:33;;;;;;;7.67;6.80;;;;;;;;;;5073958;28;20821;-55
2023/12/10 04:48:01;;;;;;;8.87;8.07;;;;;;;;;;5077082;28;20440;-55
2023/12/10 04:50:28;;;;;;;8.60;7.77;;;;;;;;;;5076953;28;20458;-56
2023/12/10 04:52:56;;;;;;;8.80;7.87;;;;;;;;;;5076774;28;20878;-55
2023/12/10 04:55:23;;;;;;;9.13;8.23;;;;;;;;;;5076479;28;20443;-56
2023/12/10 04:57:50;;;;;;;10.07;7.90;;;;;;;;;;5075062;28;20438;-54
2023/12/10 05:00:18;;;;;;;8.53;7.60;;;;;;;;;;5076446;28;20823;-54
2023/12/10 05:02:47;;;;;;;6.50;5.37;;;;;;;;;;5075872;28;20975;-55
2023/12/10 05:05:14;;;;;;;6.93;6.33;;;;;;;;;;5075773;28;20441;-55
2023/12/10 05:07:41;;;;;;;8.23;7.43;;;;;;;;;;5076577;28;20800;-55
2023/12/10 05:10:09;;;;;;;10.60;8.80;;;;;;;;;;5076182;28;20750;-54
2023/12/10 05:12:37;;;;;;;9.33;8.43;;;;;;;;;;5076430;28;20483;-61
2023/12/10 05:15:04;;;;;;;12.80;11.40;;;;;;;;;;5076782;28;20448;-55
2023/12/10 05:17:32;;;;;;;11.67;10.47;;;;;;;;;;5076388;28;20451;-56
2023/12/10 05:20:02;;;;;;;9.93;8.93;;;;;;;;;;5076157;28;20469;-54
2023/12/10 05:22:29;;;;;;;10.93;7.80;;;;;;;;;;5076532;28;20527;-54
2023/12/10 05:24:56;;;;;;;8.10;7.30;;;;;;;;;;5075947;28;20454;-54
2023/12/10 05:27:24;;;;;;;8.37;7.20;;;;;;;;;;5076152;28;20453;-56
2023/12/10 05:29:51;;;;;;;8.17;7.33;;;;;;;;;;5076129;28;20439;-55
2023/12/10 05:32:18;;;;;;;9.03;8.13;;;;;;;;;;5075549;28;20480;-55
2023/12/10 05:34:46;;;;;;;9.97;8.97;;;;;;;;;;5070213;28;20883;-54
2023/12/10 05:37:15;;;;;;;11.83;10.77;;;;;;;;;;5075894;28;20916;-54
2023/12/10 05:39:42;;;;;;;12.80;11.50;;;;;;;;;;5070009;28;20459;-54
2023/12/10 05:42:09;;;;;;;11.03;9.93;;;;;;;;;;5075827;28;20439;-55
2023/12/10 05:44:37;;;;;;;9.53;8.63;;;;;;;;;;5076338;28;20526;-56
2023/12/10 05:47:04;;;;;;;9.33;8.43;;;;;;;;;;5075576;28;20452;-55
2023/12/10 05:49:31;;;;;;;9.73;8.53;;;;;;;;;;5075841;28;20783;-54
2023/12/10 05:51:59;;;;;;;7.33;6.60;;;;;;;;;;5075942;28;20850;-56
2023/12/10 05:54:28;;;;;;;7.60;6.90;;;;;;;;;;5073470;28;20502;-54
2023/12/10 05:56:55;;;;;;;8.73;7.93;;;;;;;;;;5073390;28;20445;-54
2023/12/10 05:59:22;;;;;;;7.90;7.10;;;;;;;;;;5074550;28;20440;-54
2023/12/10 06:01:50;;;;;;;8.80;7.80;;;;;;;;;;5075494;28;20447;-54
2023/12/10 06:04:17;;;;;;;8.90;8.07;;;;;;;;;;5075425;28;20471;-54
2023/12/10 06:06:44;;;;;;;9.53;8.30;;;;;;;;;;5075534;28;20436;-55
2023/12/10 06:09:13;;;;;;;10.57;9.50;;;;;;;;;;5074570;28;20441;-57
2023/12/10 06:11:43;;;;;;;9.40;7.83;;;;;;;;;;5075708;28;20452;-55
2023/12/10 06:14:10;;;;;;;6.43;5.60;;;;;;;;;;5075338;28;20475;-54
2023/12/10 06:16:38;;;;;;;8.23;7.30;;;;;;;;;;5075288;28;20442;-54
2023/12/10 06:19:05;;;;;;;28.50;17.40;;;;;;;;;;5068432;28;20450;-54
2023/12/10 06:21:33;;;;;;;27.87;20.13;;;;;;;;;;5074864;28;20448;-54
2023/12/10 06:24:01;;;;;;;11.17;9.07;;;;;;;;;;5074034;28;20467;-54
2023/12/10 06:26:28;;;;;;;5.67;5.17;;;;;;;;;;5072969;28;20457;-54
2023/12/10 06:28:57;;;;;;;6.10;5.23;;;;;;;;;;5073757;28;20453;-55
2023/12/10 06:31:24;;;;;;;8.80;6.63;;;;;;;;;;5067626;28;20945;-55
2023/12/10 06:33:52;;;;;;;9.00;8.20;;;;;;;;;;5069147;28;20481;-57
2023/12/10 06:36:19;;;;;;;11.00;9.90;;;;;;;;;;5072912;28;20472;-55
2023/12/10 06:38:46;;;;;;;8.70;7.73;;;;;;;;;;5073079;28;20459;-55
2023/12/10 06:41:14;;;;;;;6.50;5.80;;;;;;;;;;5073285;28;20452;-55
2023/12/10 06:43:41;;;;;;;6.30;5.70;;;;;;;;;;5073333;28;20471;-55
2023/12/10 06:46:13;;;;;;;7.90;7.13;;;;;;;;;;5074063;28;20450;-55
2023/12/10 06:48:40;;;;;;;5.20;4.63;;;;;;;;;;5073853;28;20448;-55
2023/12/10 06:51:08;;;;;;;5.20;4.70;;;;;;;;;;5073951;28;20456;-59
2023/12/10 06:53:35;;;;;;;4.90;4.23;;;;;;;;;;5074186;28;20491;-55
2023/12/10 06:56:02;;;;;;;7.87;6.63;;;;;;;;;;5074755;28;20456;-55
2023/12/10 06:58:30;;;;;;;11.07;10.00;;;;;;;;;;5074250;28;21010;-56
2023/12/10 07:00:57;;;;;;;8.73;4.03;;;;;;;;;;5064702;28;20444;-55
2023/12/10 07:03:26;;;;;;;8.07;5.00;;;;;;;;;;5062989;28;20462;-58
2023/12/10 07:05:53;;;;;;;6.10;5.50;;;;;;;;;;5068600;28;20449;-55
2023/12/10 07:08:20;;;;;;;9.90;7.80;;;;;;;;;;5056392;28;20452;-55
2023/12/10 07:10:48;;;;;;;9.07;8.17;;;;;;;;;;5050892;28;20452;-55
2023/12/10 07:13:15;;;;;;;9.00;8.10;;;;;;;;;;5050200;28;21022;-55
2023/12/10 07:15:45;;;;;;;6.73;6.03;;;;;;;;;;5051223;28;20947;-55
2023/12/10 07:18:13;;;;;;;7.60;6.70;;;;;;;;;;5050943;28;20445;-56
2023/12/10 07:20:41;;;;;;;14.50;11.90;;;;;;;;;;5052738;28;20969;-55
2023/12/10 07:23:09;;;;;;;29.90;15.97;;;;;;;;;;5051645;28;20454;-56
2023/12/10 07:25:37;;;;;;;22.33;17.70;;;;;;;;;;5052405;28;20446;-54
2023/12/10 07:28:04;;;;;;;17.50;14.50;;;;;;;;;;5051939;28;20933;-54
2023/12/10 07:30:32;;;;;;;13.03;11.60;;;;;;;;;;5051411;28;20595;-54
2023/12/10 07:32:59;;;;;;;7.13;6.40;;;;;;;;;;5051861;28;20487;-55
2023/12/10 07:35:26;;;;;;;8.47;6.30;;;;;;;;;;5049144;28;20457;-54
2023/12/10 07:37:55;;;;;;;10.20;7.77;;;;;;;;;;5051602;28;20444;-56
2023/12/10 07:40:23;;;;;;;12.10;10.20;;;;;;;;;;5048900;28;20454;-54
2023/12/10 07:42:51;;;;;;;15.80;13.30;;;;;;;;;;5053768;28;20552;-55
2023/12/10 07:45:18;;;;;;;14.30;12.40;;;;;;;;;;5051417;28;20468;-55
2023/12/10 07:47:46;;;;;;;15.60;12.60;;;;;;;;;;5045336;28;20534;-55
2023/12/10 07:50:13;;;;;;;14.50;13.00;;;;;;;;;;5045503;28;20463;-56
2023/12/10 07:52:40;;;;;;;18.33;14.67;;;;;;;;;;5046456;28;20494;-63
2023/12/10 07:55:09;;;;;;;17.87;15.53;;;;;;;;;;5075053;22;21027;-54
2023/12/10 07:57:37;;;;;;;16.50;14.77;;;;;;;;;;5069186;28;20479;-54
2023/12/10 08:00:06;;;;;;;19.90;17.70;;;;;;;;;;5068954;28;20438;-56
2023/12/10 08:02:33;;;;;;;19.87;17.57;;;;;;;;;;5069188;28;20963;-56
2023/12/10 08:05:01;;;;;;;23.43;20.90;;;;;;;;;;5068811;28;20489;-55
2023/12/10 08:07:28;;;;;;;22.10;19.77;;;;;;;;;;5067070;28;20473;-54
2023/12/10 08:09:55;;;;;;;21.13;17.93;;;;;;;;;;5064683;28;20462;-53
2023/12/10 08:12:24;;;;;;;22.60;16.77;;;;;;;;;;5069443;28;20768;-55
2023/12/10 08:14:52;;;;;;;13.67;12.33;;;;;;;;;;5069437;28;20453;-54
2023/12/10 08:17:19;;;;;;;12.60;10.63;;;;;;;;;;5068371;28;20479;-57
2023/12/10 08:19:47;;;;;;;10.57;9.57;;;;;;;;;;5063716;28;20452;-53
2023/12/10 08:22:14;;;;;;;15.87;13.30;;;;;;;;;;5068796;28;20439;-55
2023/12/10 08:24:43;;;;;;;16.33;14.60;;;;;;;;;;5068993;28;20830;-57
2023/12/10 08:27:10;;;;;;;18.83;16.80;;;;;;;;;;5068590;28;20488;-55
2023/12/10 08:29:40;;;;;;;21.17;18.27;;;;;;;;;;5067910;28;20431;-55
2023/12/10 08:32:08;;;;;;;20.30;18.20;;;;;;;;;;5065310;28;20462;-55
2023/12/10 08:34:35;;;;;;;21.80;19.13;;;;;;;;;;5069162;28;20509;-56
2023/12/10 08:37:03;;;;;;;23.60;19.70;;;;;;;;;;5073686;28;20453;-56
2023/12/10 08:39:30;;;;;;;11.27;10.17;;;;;;;;;;5069757;28;20449;-57
2023/12/10 08:41:58;;;;;;;11.13;9.90;;;;;;;;;;5068616;28;20447;-54
2023/12/10 08:44:26;;;;;;;8.67;7.87;;;;;;;;;;5064796;28;20498;-54
2023/12/10 08:46:55;;;;;;;26.97;19.10;;;;;;;;;;5066730;28;20439;-55
2023/12/10 08:49:22;;;;;;;25.40;21.30;;;;;;;;;;5066413;28;20786;-55
2023/12/10 08:51:50;;;;;;;26.33;20.23;;;;;;;;;;5065409;28;20455;-56
2023/12/10 08:54:17;;;;;;;44.90;40.30;;;;;;;;;;5062305;28;20483;-57
2023/12/10 08:56:44;;;;;;;30.23;26.93;;;;;;;;;;5063977;28;20463;-55
2023/12/10 08:59:12;;;;;;;22.67;20.47;;;;;;;;;;5057458;28;20438;-56
2023/12/10 09:01:39;;;;;;;25.90;18.60;;;;;;;;;;5059038;28;20435;-55
2023/12/10 09:04:08;;;;;;;19.63;15.70;;;;;;;;;;5059804;28;20461;-57
2023/12/10 09:06:35;;;;;;;42.27;38.20;;;;;;;;;;5058362;28;20815;-54
2023/12/10 09:09:03;;;;;;;19.13;16.30;;;;;;;;;;5060237;28;20898;-55
2023/12/10 09:11:31;;;;;;;17.57;15.63;;;;;;;;;;5061936;28;20961;-54
2023/12/10 09:13:58;;;;;;;20.37;17.13;;;;;;;;;;5063823;28;20804;-55
2023/12/10 09:16:26;;;;;;;21.23;18.97;;;;;;;;;;5057084;28;20576;-53
2023/12/10 09:18:53;;;;;;;16.90;15.00;;;;;;;;;;5057858;28;20443;-54
2023/12/10 09:21:22;;;;;;;22.17;17.03;;;;;;;;;;5058066;28;20449;-56
2023/12/10 09:23:50;;;;;;;21.10;16.10;;;;;;;;;;5060705;28;20455;-55
2023/12/10 09:26:17;;;;;;;16.90;15.10;;;;;;;;;;5058945;28;21478;-56
2023/12/10 09:28:44;;;;;;;19.50;17.50;;;;;;;;;;5062497;28;20434;-57
2023/12/10 09:31:12;;;;;;;17.53;15.63;;;;;;;;;;5063160;28;20442;-56
2023/12/10 09:33:39;;;;;;;12.70;10.20;;;;;;;;;;5062280;28;20488;-57
2023/12/10 09:36:07;;;;;;;7.00;5.27;;;;;;;;;;5063547;28;20441;-55
2023/12/10 09:38:35;;;;;;;7.10;5.50;;;;;;;;;;5069593;28;20458;-55
2023/12/10 09:41:03;;;;;;;8.07;7.27;;;;;;;;;;5069741;28;20447;-57
2023/12/10 09:43:30;;;;;;;10.60;9.00;;;;;;;;;;5068089;28;20454;-54
2023/12/10 09:45:58;;;;;;;14.97;11.90;;;;;;;;;;5068321;28;20440;-54
2023/12/10 09:48:25;;;;;;;12.00;10.30;;;;;;;;;;5061826;28;20543;-56
2023/12/10 09:50:53;;;;;;;10.63;8.83;;;;;;;;;;5069133;28;20522;-54
2023/12/10 09:53:21;;;;;;;10.70;8.50;;;;;;;;;;5069599;28;20494;-56
2023/12/10 09:55:50;;;;;;;16.23;14.53;;;;;;;;;;5069669;28;20448;-55
2023/12/10 09:58:18;;;;;;;21.00;18.00;;;;;;;;;;5069391;28;21008;-58
2023/12/10 10:00:45;;;;;;;22.10;19.80;;;;;;;;;;5069744;28;20933;-54
2023/12/10 10:03:12;;;;;;;21.27;19.07;;;;;;;;;;5068100;28;20440;-55
2023/12/10 10:05:40;;;;;;;17.50;15.70;;;;;;;;;;5069420;28;20436;-56
2023/12/10 10:08:07;;;;;;;13.27;11.33;;;;;;;;;;5069284;28;20438;-55
2023/12/10 10:10:35;;;;;;;12.83;11.60;;;;;;;;;;5068821;28;20436;-56
2023/12/10 10:13:06;;;;;;;12.17;10.53;;;;;;;;;;5067965;28;20447;-54
2023/12/10 10:15:34;;;;;;;17.27;14.80;;;;;;;;;;5062836;28;20438;-54
2023/12/10 10:18:01;;;;;;;18.37;16.53;;;;;;;;;;5068888;28;20969;-53
2023/12/10 10:20:30;;;;;;;7.30;6.60;;;;;;;;;;5068978;28;20451;-54
2023/12/10 10:22:57;;;;;;;7.03;5.40;;;;;;;;;;5069092;28;20431;-54
2023/12/10 10:25:26;;;;;;;6.87;6.17;;;;;;;;;;5061340;28;20442;-57
2023/12/10 10:27:54;;;;;;;14.90;13.43;;;;;;;;;;5069005;28;20445;-56
2023/12/10 10:30:22;;;;;;;16.13;14.47;;;;;;;;;;5068549;28;20447;-57
2023/12/10 10:32:50;;;;;;;15.43;13.80;;;;;;;;;;5067698;28;20503;-55
2023/12/10 10:35:18;;;;;;;14.30;12.80;;;;;;;;;;5066968;28;21112;-56
2023/12/10 10:37:45;;;;;;;13.80;10.67;;;;;;;;;;5068976;28;20446;-56
2023/12/10 10:40:12;;;;;;;15.40;11.57;;;;;;;;;;5060408;28;20438;-55
2023/12/10 10:42:40;;;;;;;12.67;11.37;;;;;;;;;;5068830;28;20439;-56
2023/12/10 10:45:08;;;;;;;13.90;10.50;;;;;;;;;;5067315;28;20451;-57
2023/12/10 10:47:37;;;;;;;7.93;7.13;;;;;;;;;;5067575;28;20438;-56
2023/12/10 10:50:06;;;;;;;6.50;5.90;;;;;;;;;;5068176;28;20455;-55
2023/12/10 10:52:35;;;;;;;10.40;9.40;;;;;;;;;;5068668;28;21037;-54
2023/12/10 10:55:03;;;;;;;16.13;13.50;;;;;;;;;;5068040;28;21001;-56
2023/12/10 10:57:31;;;;;;;15.70;14.20;;;;;;;;;;5068572;28;20446;-55
2023/12/10 10:59:58;;;;;;;12.90;11.70;;;;;;;;;;5067146;28;20453;-53
2023/12/10 11:02:26;;;;;;;13.73;11.40;;;;;;;;;;5068640;28;21022;-54
2023/12/10 11:04:54;;;;;;;14.60;11.37;;;;;;;;;;5068770;28;20478;-56
2023/12/10 11:07:24;;;;;;;14.03;10.77;;;;;;;;;;5068503;28;20447;-54
2023/12/10 11:09:56;;;;;;;12.90;11.30;;;;;;;;;;5068380;28;20435;-56
2023/12/10 11:15:24;;;;;;;11.90;10.80;;;;;;;;;;5064582;27;20682;-56
2023/12/10 11:17:53;;;;;;;14.57;12.37;;;;;;;;;;5063651;28;20439;-54
2023/12/10 11:20:33;;;;;;;9.83;8.60;;;;;;;;;;5062896;28;20809;-56
2023/12/10 11:23:01;;;;;;;9.83;7.60;;;;;;;;;;5063153;28;20926;-55
2023/12/10 11:25:29;;;;;;;8.10;7.30;;;;;;;;;;5063335;28;20445;-56
2023/12/10 11:27:57;;;;;;;7.90;7.00;;;;;;;;;;5063161;28;20495;-54
2023/12/10 11:30:26;;;;;;;8.33;7.30;;;;;;;;;;5063481;28;20436;-56
2023/12/10 11:32:54;;;;;;;10.63;9.47;;;;;;;;;;5063829;28;20440;-54
2023/12/10 11:35:21;;;;;;;10.93;9.50;;;;;;;;;;5063833;28;20469;-54
2023/12/10 11:37:48;;;;;;;8.50;7.27;;;;;;;;;;5063858;28;20436;-56
2023/12/10 11:40:16;;;;;;;7.40;5.90;;;;;;;;;;5063231;28;20805;-53
2023/12/10 11:42:43;;;;;;;7.47;6.63;;;;;;;;;;5063898;28;20440;-54
2023/12/10 11:45:13;;;;;;;8.13;7.33;;;;;;;;;;5063663;28;20456;-53
2023/12/10 11:47:43;;;;;;;11.60;9.53;;;;;;;;;;5064178;28;20440;-54
2023/12/10 11:50:11;;;;;;;15.53;14.00;;;;;;;;;;5063639;28;20440;-54
2023/12/10 11:52:38;;;;;;;13.90;12.50;;;;;;;;;;5064202;28;20439;-53
2023/12/10 11:55:07;;;;;;;13.30;10.20;;;;;;;;;;5063392;28;20491;-52
2023/12/10 11:57:34;;;;;;;12.80;11.50;;;;;;;;;;5063477;28;20915;-53
2023/12/10 12:00:04;;;;;;;13.03;11.50;;;;;;;;;;5063017;28;21017;-53
2023/12/10 12:02:34;;;;;;;13.87;10.80;;;;;;;;;;5063438;28;20444;-52
2023/12/10 12:05:03;;;;;;;7.50;6.70;;;;;;;;;;5063447;28;20467;-53
2023/12/10 12:07:30;;;;;;;12.10;9.93;;;;;;;;;;5063256;28;20528;-53
2023/12/10 12:09:58;;;;;;;13.57;12.17;;;;;;;;;;5063381;28;20437;-55
2023/12/10 12:12:27;;;;;;;14.23;11.13;;;;;;;;;;5056596;28;20447;-54
2023/12/10 12:14:54;;;;;;;12.77;11.47;;;;;;;;;;5058346;28;20484;-54
2023/12/10 12:17:22;;;;;;;19.10;16.97;;;;;;;;;;5062461;28;20452;-57
2023/12/10 12:19:49;;;;;;;14.37;12.97;;;;;;;;;;5062823;28;20444;-53
2023/12/10 12:22:18;;;;;;;13.17;11.93;;;;;;;;;;5062632;28;20443;-54
2023/12/10 12:24:46;;;;;;;13.10;11.80;;;;;;;;;;5057689;28;20484;-53
2023/12/10 12:27:13;;;;;;;10.53;9.53;;;;;;;;;;5049547;28;20449;-55
2023/12/10 12:29:40;;;;;;;11.80;10.53;;;;;;;;;;5049247;28;20971;-54
2023/12/10 12:32:08;;;;;;;10.43;9.43;;;;;;;;;;5049770;28;20441;-52
2023/12/10 12:34:35;;;;;;;10.40;8.83;;;;;;;;;;5049599;28;20477;-54
2023/12/10 12:37:03;;;;;;;10.67;8.47;;;;;;;;;;5050732;28;20449;-53
2023/12/10 12:39:31;;;;;;;9.57;8.57;;;;;;;;;;5050465;28;20441;-53
2023/12/10 12:41:59;;;;;;;13.77;9.93;;;;;;;;;;5050129;28;20448;-55
2023/12/10 12:44:26;;;;;;;12.13;10.80;;;;;;;;;;5049899;28;20464;-54
2023/12/10 12:46:54;;;;;;;13.60;11.20;;;;;;;;;;5049731;28;20445;-54
2023/12/10 12:49:21;;;;;;;11.57;10.47;;;;;;;;;;5049363;28;20440;-54
2023/12/10 12:51:48;;;;;;;10.80;9.70;;;;;;;;;;5049774;28;20434;-55
2023/12/10 12:54:16;;;;;;;9.90;7.70;;;;;;;;;;5049354;28;20481;-56
2023/12/10 12:56:45;;;;;;;10.13;9.13;;;;;;;;;;5049743;28;20454;-53
2023/12/10 12:59:13;;;;;;;12.90;10.60;;;;;;;;;;5049089;28;20441;-53
2023/12/10 13:01:40;;;;;;;12.33;11.03;;;;;;;;;;5049316;28;20491;-54
2023/12/10 13:04:07;;;;;;;11.53;10.33;;;;;;;;;;5049592;28;20466;-55
2023/12/10 13:06:35;;;;;;;10.00;9.00;;;;;;;;;;5049375;28;20441;-53
2023/12/10 13:09:02;;;;;;;8.57;7.77;;;;;;;;;;5048893;28;20450;-56
2023/12/10 13:11:30;;;;;;;8.33;7.53;;;;;;;;;;5049660;28;20433;-54
2023/12/10 13:13:58;;;;;;;11.57;7.70;;;;;;;;;;5048939;28;20485;-53
2023/12/10 13:16:26;;;;;;;10.33;8.03;;;;;;;;;;5049675;28;20438;-54
2023/12/10 13:18:53;;;;;;;8.03;7.20;;;;;;;;;;5049316;28;20453;-53
2023/12/10 13:21:21;;;;;;;9.70;7.70;;;;;;;;;;5048263;28;20948;-53
2023/12/10 13:23:48;;;;;;;7.33;6.63;;;;;;;;;;5049267;28;20978;-52
2023/12/10 13:26:15;;;;;;;9.60;7.60;;;;;;;;;;5043981;28;21344;-53
2023/12/10 13:28:43;;;;;;;7.93;6.03;;;;;;;;;;5048676;28;21138;-55
2023/12/10 13:31:12;;;;;;;5.40;4.90;;;;;;;;;;5048284;28;20447;-55
2023/12/10 13:33:39;;;;;;;5.10;3.70;;;;;;;;;;5049129;28;20457;-54
2023/12/10 13:36:07;;;;;;;3.37;2.33;;;;;;;;;;5048373;28;20445;-53
2023/12/10 13:38:34;;;;;;;2.90;1.30;;;;;;;;;;5046402;28;20456;-54
2023/12/10 13:41:01;;;;;;;2.33;1.30;;;;;;;;;;5048246;28;20453;-55
2023/12/10 13:43:29;;;;;;;2.83;1.90;;;;;;;;;;5048993;28;20461;-53
2023/12/10 13:45:57;;;;;;;6.80;5.30;;;;;;;;;;5048443;28;20434;-54
2023/12/10 13:48:26;;;;;;;10.67;9.57;;;;;;;;;;5048183;28;20444;-50
2023/12/10 13:50:53;;;;;;;9.53;8.53;;;;;;;;;;5048982;28;20433;-53
2023/12/10 13:55:49;;;;;;;5.67;3.70;;;;;;;;;;5005223;28;20490;-54
2023/12/10 13:58:17;;;;;;;5.53;4.40;;;;;;;;;;5007534;28;20443;-54
2023/12/10 14:00:45;;;;;;;4.20;3.20;;;;;;;;;;5007449;28;20538;-53
2023/12/10 14:03:12;;;;;;;3.40;2.17;;;;;;;;;;5006078;28;20473;-53
2023/12/10 14:05:42;;;;;;;3.30;2.07;;;;;;;;;;5006831;28;20443;-54
2023/12/10 14:08:09;;;;;;;5.50;3.03;;;;;;;;;;5006582;28;20443;-53
2023/12/10 14:10:37;;;;;;;5.80;3.10;;;;;;;;;;5005224;28;20442;-54
2023/12/10 14:13:04;;;;;;;6.17;4.60;;;;;;;;;;5007986;28;20439;-54
2023/12/10 14:15:32;;;;;;;4.57;3.30;;;;;;;;;;5005278;28;20483;-54
2023/12/10 14:17:59;;;;;;;3.23;2.23;;;;;;;;;;5006891;28;20454;-54
2023/12/10 14:20:26;;;;;;;3.73;1.70;;;;;;;;;;5007096;28;20454;-54
2023/12/10 14:22:55;;;;;;;3.77;2.33;;;;;;;;;;5006860;28;20454;-53
2023/12/10 14:25:22;;;;;;;4.60;3.60;;;;;;;;;;5004362;28;20467;-54
2023/12/10 14:27:50;;;;;;;3.93;2.83;;;;;;;;;;5003758;28;20447;-53
2023/12/10 14:30:17;;;;;;;3.20;1.57;;;;;;;;;;5001734;28;20454;-53
2023/12/10 14:32:45;;;;;;;2.87;1.10;;;;;;;;;;5005027;28;20457;-53
2023/12/10 14:35:12;;;;;;;2.93;1.77;;;;;;;;;;5004892;28;20784;-53
2023/12/10 14:37:39;;;;;;;3.43;2.37;;;;;;;;;;5006362;28;20934;-53
2023/12/10 14:40:10;;;;;;;4.27;2.80;;;;;;;;;;5005161;28;20968;-56
2023/12/10 14:42:38;;;;;;;3.53;2.77;;;;;;;;;;5005914;28;20543;-55